createdAt,value
2018-09-11T00:01:54.272Z,55.52
2018-09-11T00:04:23.064Z,55.94
2018-09-11T00:06:52.093Z,56.62
2018-09-11T00:09:20.765Z,56.40
2018-09-11T00:11:49.425Z,56.48
2018-09-11T00:14:18.211Z,56.34
2018-09-11T00:16:47.037Z,56.75
2018-09-11T00:19:15.746Z,56.49
2018-09-11T00:21:44.406Z,56.51
2018-09-11T00:24:13.135Z,56.08
2018-09-11T00:26:41.878Z,56.73
2018-09-11T00:29:10.582Z,56.99
2018-09-11T00:31:39.248Z,57.03
2018-09-11T00:34:08.052Z,57.04
2018-09-11T00:36:36.743Z,57.80
2018-09-11T00:39:06.228Z,57.53
2018-09-11T00:41:34.856Z,57.69
2018-09-11T00:44:03.625Z,58.17
2018-09-11T00:46:32.324Z,57.77
2018-09-11T00:49:00.990Z,57.97
2018-09-11T00:51:29.810Z,58.55
2018-09-11T00:53:58.455Z,58.08
2018-09-11T00:56:27.099Z,58.29
2018-09-11T00:58:55.746Z,57.79
2018-09-11T01:01:24.380Z,58.01
2018-09-11T01:03:53.066Z,58.91
2018-09-11T01:06:21.752Z,58.80
2018-09-11T01:08:50.466Z,58.43
2018-09-11T01:11:19.123Z,58.67
2018-09-11T01:13:47.762Z,59.10
2018-09-11T01:16:16.414Z,58.74
2018-09-11T01:18:45.063Z,58.39
2018-09-11T01:21:13.717Z,58.27
2018-09-11T01:23:42.350Z,58.77
2018-09-11T01:26:11.015Z,61.24
2018-09-11T01:28:39.659Z,61.22
2018-09-11T01:31:08.302Z,61.66
2018-09-11T01:33:37.007Z,62.08
2018-09-11T01:36:05.798Z,62.20
2018-09-11T01:38:34.547Z,62.03
2018-09-11T01:41:03.250Z,62.58
2018-09-11T01:43:31.914Z,62.09
2018-09-11T01:46:00.562Z,62.03
2018-09-11T01:48:29.167Z,61.71
2018-09-11T01:50:57.867Z,60.93
2018-09-11T01:53:26.517Z,61.24
2018-09-11T01:55:55.202Z,60.81
2018-09-11T01:58:23.827Z,60.80
2018-09-11T02:00:52.647Z,61.62
2018-09-11T02:03:21.271Z,61.78
2018-09-11T02:05:49.960Z,61.75
2018-09-11T02:08:18.587Z,62.15
2018-09-11T02:10:47.241Z,61.83
2018-09-11T02:13:15.917Z,62.67
2018-09-11T02:15:44.597Z,62.60
2018-09-11T02:18:13.242Z,62.68
2018-09-11T02:20:41.935Z,63.31
2018-09-11T02:23:10.614Z,63.32
2018-09-11T02:25:39.399Z,63.21
2018-09-11T02:28:08.074Z,63.62
2018-09-11T02:30:36.722Z,62.78
2018-09-11T02:33:05.490Z,62.31
2018-09-11T02:35:34.183Z,62.41
2018-09-11T02:38:02.794Z,62.36
2018-09-11T02:40:31.454Z,62.23
2018-09-11T02:43:00.084Z,62.65
2018-09-11T02:45:28.747Z,62.22
2018-09-11T02:47:57.477Z,62.21
2018-09-11T02:50:26.108Z,62.14
2018-09-11T02:52:54.851Z,61.93
2018-09-11T02:55:23.518Z,61.92
2018-09-11T02:57:52.234Z,62.06
2018-09-11T03:00:20.876Z,61.49
2018-09-11T03:02:49.555Z,61.00
2018-09-11T03:05:18.285Z,61.44
2018-09-11T03:07:46.937Z,61.79
2018-09-11T03:10:15.620Z,61.11
2018-09-11T03:12:44.278Z,61.07
2018-09-11T03:15:12.952Z,60.98
2018-09-11T03:17:41.617Z,60.59
2018-09-11T03:20:10.351Z,60.50
2018-09-11T03:22:38.991Z,60.74
2018-09-11T03:25:07.839Z,60.46
2018-09-11T03:27:36.447Z,60.12
2018-09-11T03:30:07.559Z,60.36
2018-09-11T03:32:36.230Z,59.60
2018-09-11T03:35:05.066Z,59.85
2018-09-11T03:37:33.741Z,59.39
2018-09-11T03:40:03.715Z,59.75
2018-09-11T03:42:32.362Z,60.01
2018-09-11T03:45:01.052Z,59.92
2018-09-11T03:47:29.860Z,59.99
2018-09-11T03:49:58.507Z,60.06
2018-09-11T03:52:27.324Z,60.00
2018-09-11T03:54:55.976Z,59.57
2018-09-11T03:57:24.619Z,59.92
2018-09-11T03:59:53.263Z,59.62
2018-09-11T04:02:21.940Z,59.20
2018-09-11T04:04:50.642Z,59.21
2018-09-11T04:07:19.376Z,59.37
2018-09-11T04:09:48.572Z,59.75
2018-09-11T04:12:17.589Z,59.67
2018-09-11T04:14:46.275Z,59.83
2018-09-11T04:17:15.007Z,59.37
2018-09-11T04:19:43.704Z,59.44
2018-09-11T04:22:12.403Z,59.12
2018-09-11T04:24:41.146Z,59.05
2018-09-11T04:27:09.867Z,58.96
2018-09-11T04:29:38.517Z,59.13
2018-09-11T04:32:07.203Z,58.63
2018-09-11T04:34:35.823Z,59.37
2018-09-11T04:37:04.477Z,59.14
2018-09-11T04:39:33.101Z,61.32
2018-09-11T04:42:01.815Z,61.74
2018-09-11T04:44:30.513Z,62.54
2018-09-11T04:46:59.148Z,63.03
2018-09-11T04:49:27.831Z,61.40
2018-09-11T04:51:56.498Z,61.33
2018-09-11T04:54:25.188Z,61.47
2018-09-11T04:56:54.007Z,61.88
2018-09-11T04:59:22.663Z,61.73
2018-09-11T05:01:51.370Z,62.66
2018-09-11T05:04:20.063Z,61.43
2018-09-11T05:06:48.739Z,61.30
2018-09-11T05:09:17.467Z,61.83
2018-09-11T05:11:46.223Z,62.62
2018-09-11T05:14:14.892Z,62.83
2018-09-11T05:16:43.542Z,63.21
2018-09-11T05:19:12.326Z,63.20
2018-09-11T05:21:40.923Z,63.23
2018-09-11T05:24:09.590Z,63.66
2018-09-11T05:26:38.293Z,64.36
2018-09-11T05:29:07.304Z,64.97
2018-09-11T05:31:35.934Z,64.54
2018-09-11T05:34:05.319Z,64.54
2018-09-11T05:36:34.047Z,65.58
2018-09-11T05:39:02.794Z,64.46
2018-09-11T05:41:31.433Z,64.12
2018-09-11T05:44:00.123Z,64.80
2018-09-11T05:46:28.811Z,64.16
2018-09-11T05:48:57.485Z,63.43
2018-09-11T05:51:26.238Z,62.86
2018-09-11T05:53:55.332Z,62.79
2018-09-11T05:56:23.997Z,62.61
2018-09-11T05:58:52.701Z,62.37
2018-09-11T06:01:22.044Z,62.53
2018-09-11T06:03:50.646Z,62.37
2018-09-11T06:06:19.302Z,62.21
2018-09-11T06:08:48.096Z,61.65
2018-09-11T06:11:16.803Z,60.94
2018-09-11T06:13:45.566Z,60.45
2018-09-11T06:16:14.385Z,60.71
2018-09-11T06:18:43.067Z,60.11
2018-09-11T06:21:11.791Z,59.66
2018-09-11T06:23:40.587Z,59.89
2018-09-11T06:26:09.268Z,59.33
2018-09-11T06:28:37.917Z,59.81
2018-09-11T06:31:07.062Z,59.67
2018-09-11T06:33:35.748Z,58.60
2018-09-11T06:36:04.470Z,58.06
2018-09-11T06:38:33.168Z,56.57
2018-09-11T06:41:01.880Z,56.18
2018-09-11T06:43:30.524Z,56.16
2018-09-11T06:45:59.298Z,55.51
2018-09-11T06:48:27.975Z,54.29
2018-09-11T06:50:56.729Z,55.21
2018-09-11T06:53:25.506Z,54.99
2018-09-11T06:55:54.200Z,54.89
2018-09-11T06:58:22.822Z,54.61
2018-09-11T07:00:51.487Z,55.02
2018-09-11T07:03:20.135Z,54.88
2018-09-11T07:05:48.753Z,53.54
2018-09-11T07:08:17.566Z,53.81
2018-09-11T07:10:46.319Z,54.20
2018-09-11T07:13:15.082Z,54.24
2018-09-11T07:15:43.755Z,54.01
2018-09-11T07:18:12.430Z,52.35
2018-09-11T07:20:41.075Z,51.75
2018-09-11T07:23:09.850Z,51.71
2018-09-11T07:25:38.525Z,52.00
2018-09-11T07:28:07.198Z,50.59
2018-09-11T07:30:35.875Z,50.63
2018-09-11T07:33:04.611Z,50.35
2018-09-11T07:35:33.249Z,49.17
2018-09-11T07:38:01.911Z,49.08
2018-09-11T07:40:30.628Z,48.65
2018-09-11T07:42:59.298Z,48.63
2018-09-11T07:45:28.125Z,48.01
2018-09-11T07:47:56.775Z,48.05
2018-09-11T07:50:25.472Z,48.00
2018-09-11T07:52:54.293Z,46.10
2018-09-11T07:55:22.975Z,47.05
2018-09-11T07:57:51.581Z,47.78
2018-09-11T08:00:20.300Z,47.99
2018-09-11T08:02:48.934Z,47.18
2018-09-11T08:05:17.641Z,46.39
2018-09-11T08:07:46.236Z,46.66
2018-09-11T08:10:14.883Z,46.51
2018-09-11T08:12:43.496Z,45.20
2018-09-11T08:15:12.189Z,44.12
2018-09-11T08:18:08.200Z,45.41
2018-09-11T08:20:36.951Z,45.38
2018-09-11T08:23:05.665Z,45.02
2018-09-11T08:25:34.423Z,44.88
2018-09-11T08:28:03.118Z,45.03
2018-09-11T08:30:32.625Z,44.63
2018-09-11T08:33:02.334Z,45.40
2018-09-11T08:35:31.091Z,45.54
2018-09-11T08:38:00.389Z,46.25
2018-09-11T08:40:29.104Z,45.29
2018-09-11T08:42:57.785Z,44.50
2018-09-11T08:45:26.479Z,43.53
2018-09-11T08:47:55.169Z,45.07
2018-09-11T08:50:23.927Z,44.50
2018-09-11T08:52:52.753Z,42.75
2018-09-11T08:55:21.371Z,43.62
2018-09-11T08:57:50.035Z,43.17
2018-09-11T09:00:18.800Z,43.39
2018-09-11T09:02:47.463Z,42.70
2018-09-11T09:05:16.108Z,43.25
2018-09-11T09:07:44.770Z,42.54
2018-09-11T09:10:13.501Z,43.01
2018-09-11T09:12:42.081Z,43.47
2018-09-11T09:15:10.829Z,42.35
2018-09-11T09:17:39.477Z,43.70
2018-09-11T09:20:08.208Z,43.38
2018-09-11T09:22:36.870Z,43.13
2018-09-11T09:25:06.135Z,43.25
2018-09-11T09:27:34.817Z,43.44
2018-09-11T09:30:05.380Z,42.97
2018-09-11T09:32:33.978Z,42.24
2018-09-11T09:35:02.635Z,42.46
2018-09-11T09:37:31.268Z,41.72
2018-09-11T09:39:59.931Z,41.19
2018-09-11T09:42:28.542Z,41.34
2018-09-11T09:44:57.238Z,41.26
2018-09-11T09:47:25.866Z,41.35
2018-09-11T09:49:54.489Z,40.87
2018-09-11T09:52:24.124Z,41.63
2018-09-11T09:54:52.746Z,40.96
2018-09-11T09:57:21.351Z,40.88
2018-09-11T09:59:49.966Z,41.81
2018-09-11T10:02:23.172Z,41.68
2018-09-11T10:04:52.605Z,40.45
2018-09-11T10:07:22.031Z,40.81
2018-09-11T10:09:50.924Z,40.91
2018-09-11T10:12:19.610Z,42.47
2018-09-11T10:14:48.340Z,41.61
2018-09-11T10:17:16.988Z,42.12
2018-09-11T10:19:45.692Z,41.45
2018-09-11T10:22:14.331Z,41.95
2018-09-11T10:24:42.974Z,41.68
2018-09-11T10:27:12.240Z,40.49
2018-09-11T10:29:40.837Z,41.93
2018-09-11T10:32:09.492Z,42.64
2018-09-11T10:34:38.096Z,41.51
2018-09-11T10:37:07.317Z,41.63
2018-09-11T10:39:35.933Z,40.69
2018-09-11T10:42:04.579Z,40.88
2018-09-11T10:44:33.223Z,41.80
2018-09-11T10:47:01.943Z,42.18
2018-09-11T10:49:30.838Z,42.50
2018-09-11T10:51:59.638Z,42.33
2018-09-11T10:54:28.136Z,41.31
2018-09-11T10:56:56.985Z,41.56
2018-09-11T10:59:25.658Z,41.79
2018-09-11T11:01:54.296Z,41.46
2018-09-11T11:04:23.007Z,41.57
2018-09-11T11:06:51.636Z,41.68
2018-09-11T11:09:20.238Z,41.20
2018-09-11T11:11:48.871Z,41.61
2018-09-11T11:14:17.478Z,39.17
2018-09-11T11:16:46.087Z,40.99
2018-09-11T11:19:14.719Z,40.86
2018-09-11T11:21:43.367Z,40.17
2018-09-11T11:24:12.284Z,38.38
2018-09-11T11:26:40.937Z,38.69
2018-09-11T11:29:09.540Z,37.70
2018-09-11T11:31:38.177Z,38.47
2018-09-11T11:34:07.317Z,38.99
2018-09-11T11:36:36.037Z,39.51
2018-09-11T11:39:06.251Z,39.65
2018-09-11T11:41:34.852Z,39.70
2018-09-11T11:44:03.588Z,39.29
2018-09-11T11:46:32.190Z,38.35
2018-09-11T11:49:00.898Z,38.55
2018-09-11T11:51:29.558Z,37.19
2018-09-11T11:53:58.478Z,33.21
2018-09-11T11:56:27.113Z,30.68
2018-09-11T11:58:55.826Z,29.56
2018-09-11T12:01:24.507Z,29.13
2018-09-11T12:03:53.090Z,29.35
2018-09-11T12:06:21.776Z,28.21
2018-09-11T12:08:50.350Z,27.77
2018-09-11T12:11:19.075Z,27.93
2018-09-11T12:13:47.780Z,28.49
2018-09-11T12:16:16.494Z,28.33
2018-09-11T12:18:45.252Z,28.10
2018-09-11T12:21:13.913Z,28.33
2018-09-11T12:23:42.598Z,27.64
2018-09-11T12:26:11.225Z,27.74
2018-09-11T12:28:39.886Z,26.32
2018-09-11T12:31:08.580Z,27.96
2018-09-11T12:33:37.323Z,28.01
2018-09-11T12:36:06.554Z,28.81
2018-09-11T12:38:35.162Z,29.94
2018-09-11T12:41:03.825Z,32.01
2018-09-11T12:43:32.540Z,31.34
2018-09-11T12:46:01.505Z,31.00
2018-09-11T12:48:30.108Z,30.98
2018-09-11T12:50:58.753Z,29.81
2018-09-11T12:53:27.413Z,28.87
2018-09-11T12:55:56.084Z,29.65
2018-09-11T12:58:24.874Z,30.06
2018-09-11T13:00:53.567Z,29.88
2018-09-11T13:03:22.168Z,31.09
2018-09-11T13:05:50.814Z,31.45
2018-09-11T13:08:19.474Z,32.38
2018-09-11T13:10:48.186Z,30.32
2018-09-11T13:13:16.866Z,30.04
2018-09-11T13:15:45.500Z,29.45
2018-09-11T13:18:14.222Z,30.98
2018-09-11T13:20:42.873Z,31.90
2018-09-11T13:23:11.515Z,30.98
2018-09-11T13:25:40.154Z,31.99
2018-09-11T13:28:08.786Z,31.24
2018-09-11T13:30:37.458Z,31.44
2018-09-11T13:33:06.652Z,30.45
2018-09-11T13:35:35.381Z,32.39
2018-09-11T13:38:04.005Z,31.36
2018-09-11T13:40:32.807Z,32.29
2018-09-11T13:43:01.421Z,32.40
2018-09-11T13:45:30.111Z,32.76
2018-09-11T13:47:58.801Z,30.85
2018-09-11T13:50:27.386Z,30.91
2018-09-11T13:52:56.094Z,29.93
2018-09-11T13:55:24.668Z,29.03
2018-09-11T13:57:53.342Z,29.52
2018-09-11T14:00:21.967Z,30.93
2018-09-11T14:02:50.582Z,30.85
2018-09-11T14:05:19.231Z,32.14
2018-09-11T14:07:47.841Z,32.58
2018-09-11T14:10:16.618Z,33.20
2018-09-11T14:12:45.299Z,32.52
2018-09-11T14:15:13.882Z,32.58
2018-09-11T14:17:42.573Z,32.58
2018-09-11T14:20:11.226Z,32.40
2018-09-11T14:22:39.815Z,33.10
2018-09-11T14:25:08.560Z,32.62
2018-09-11T14:27:37.172Z,32.60
2018-09-11T14:30:07.290Z,32.91
2018-09-11T14:32:35.940Z,34.77
2018-09-11T14:35:04.611Z,36.76
2018-09-11T14:37:33.271Z,37.71
2018-09-11T14:40:01.891Z,39.32
2018-09-11T14:42:30.516Z,39.89
2018-09-11T14:44:59.169Z,39.59
2018-09-11T14:47:33.135Z,39.91
2018-09-11T14:50:01.748Z,39.97
2018-09-11T14:52:30.432Z,39.41
2018-09-11T14:54:59.124Z,38.91
2018-09-11T14:57:27.828Z,39.47
2018-09-11T14:59:56.414Z,38.49
2018-09-11T15:02:25.048Z,39.15
2018-09-11T15:04:53.758Z,39.22
2018-09-11T15:07:22.395Z,39.26
2018-09-11T15:09:51.079Z,40.43
2018-09-11T15:12:19.868Z,40.31
2018-09-11T15:14:48.597Z,41.09
2018-09-11T15:17:18.043Z,41.27
2018-09-11T15:19:46.698Z,42.34
2018-09-11T15:22:15.500Z,42.08
2018-09-11T15:24:44.106Z,43.38
2018-09-11T15:27:12.753Z,42.91
2018-09-11T15:29:41.441Z,43.60
2018-09-11T15:32:10.080Z,43.66
2018-09-11T15:34:38.785Z,43.42
2018-09-11T15:37:07.449Z,42.30
2018-09-11T15:39:36.073Z,43.29
2018-09-11T15:42:04.747Z,43.60
2018-09-11T15:44:33.395Z,43.43
2018-09-11T15:47:02.092Z,43.40
2018-09-11T15:49:30.741Z,43.98
2018-09-11T15:51:59.488Z,44.04
2018-09-11T15:54:28.293Z,44.17
2018-09-11T15:56:56.935Z,44.54
2018-09-11T15:59:25.607Z,44.76
2018-09-11T16:01:54.294Z,44.94
2018-09-11T16:04:22.985Z,44.78
2018-09-11T16:06:51.716Z,44.88
2018-09-11T16:09:20.425Z,44.74
2018-09-11T16:11:49.129Z,45.02
2018-09-11T16:14:18.190Z,44.57
2018-09-11T16:16:46.854Z,44.54
2018-09-11T16:19:16.022Z,45.49
2018-09-11T16:21:44.709Z,45.18
2018-09-11T16:24:13.306Z,45.48
2018-09-11T16:26:41.944Z,45.05
2018-09-11T16:29:10.566Z,45.12
2018-09-11T16:31:39.202Z,45.88
2018-09-11T16:34:07.917Z,45.52
2018-09-11T16:36:36.586Z,45.82
2018-09-11T16:39:07.904Z,46.62
2018-09-11T16:41:36.538Z,46.57
2018-09-11T16:44:05.183Z,47.57
2018-09-11T16:46:33.862Z,47.57
2018-09-11T16:49:02.487Z,47.04
2018-09-11T16:51:31.152Z,47.33
2018-09-11T16:53:59.815Z,47.62
2018-09-11T16:56:28.534Z,47.28
2018-09-11T16:58:57.199Z,48.03
2018-09-11T17:01:25.892Z,47.69
2018-09-11T17:03:54.599Z,46.35
2018-09-11T17:06:23.300Z,46.78
2018-09-11T17:08:52.054Z,46.31
2018-09-11T17:11:20.822Z,46.65
2018-09-11T17:13:49.463Z,46.86
2018-09-11T17:16:18.256Z,47.35
2018-09-11T17:18:46.944Z,48.07
2018-09-11T17:21:15.606Z,47.60
2018-09-11T17:23:44.380Z,48.27
2018-09-11T17:26:13.039Z,48.11
2018-09-11T17:28:41.738Z,48.15
2018-09-11T17:31:10.478Z,48.37
2018-09-11T17:33:39.173Z,48.48
2018-09-11T17:36:07.897Z,48.05
2018-09-11T17:41:18.744Z,48.06
2018-09-11T17:43:47.427Z,48.41
2018-09-11T17:46:16.149Z,48.22
2018-09-11T17:48:44.989Z,48.52
2018-09-11T17:51:13.618Z,48.25
2018-09-11T17:53:42.334Z,48.17
2018-09-11T17:56:10.990Z,48.42
2018-09-11T17:58:39.684Z,48.38
2018-09-11T18:01:08.432Z,48.49
2018-09-11T18:03:37.175Z,48.74
2018-09-11T18:06:05.805Z,47.92
2018-09-11T18:08:34.489Z,47.92
2018-09-11T18:11:03.185Z,47.82
2018-09-11T18:13:31.917Z,47.51
2018-09-11T18:16:00.560Z,47.58
2018-09-11T18:18:29.216Z,47.91
2018-09-11T18:20:57.920Z,48.08
2018-09-11T18:23:26.666Z,48.30
2018-09-11T18:25:55.357Z,48.26
2018-09-11T18:28:23.959Z,48.06
2018-09-11T18:30:52.638Z,48.54
2018-09-11T18:33:21.292Z,48.68
2018-09-11T18:35:49.991Z,48.50
2018-09-11T18:38:18.641Z,48.68
2018-09-11T18:40:47.357Z,48.99
2018-09-11T18:43:16.039Z,48.96
2018-09-11T18:45:44.780Z,48.99
2018-09-11T18:48:13.466Z,48.83
2018-09-11T18:50:42.158Z,48.45
2018-09-11T18:53:10.866Z,48.40
2018-09-11T18:55:39.710Z,48.58
2018-09-11T18:58:08.586Z,48.34
2018-09-11T19:00:37.279Z,48.80
2018-09-11T19:03:06.145Z,48.89
2018-09-11T19:05:34.797Z,48.51
2018-09-11T19:08:03.868Z,49.11
2018-09-11T19:10:32.572Z,49.33
2018-09-11T19:13:01.247Z,49.51
2018-09-11T19:15:29.946Z,49.15
2018-09-11T19:17:58.659Z,49.23
2018-09-11T19:20:27.701Z,49.40
2018-09-11T19:22:56.818Z,49.78
2018-09-11T19:25:25.796Z,49.21
2018-09-11T19:27:54.507Z,49.08
2018-09-11T19:30:23.539Z,49.63
2018-09-11T19:32:52.328Z,49.80
2018-09-11T19:35:20.990Z,49.47
2018-09-11T19:37:49.792Z,49.54
2018-09-11T19:40:18.549Z,49.47
2018-09-11T19:42:47.151Z,49.45
2018-09-11T19:45:15.899Z,49.59
2018-09-11T19:47:44.560Z,49.78
2018-09-11T19:50:13.284Z,49.77
2018-09-11T19:52:42.051Z,49.62
2018-09-11T19:55:10.885Z,49.90
2018-09-11T19:57:39.694Z,49.72
2018-09-11T20:00:11.163Z,50.22
2018-09-11T20:02:39.813Z,50.46
2018-09-11T20:05:08.520Z,50.63
2018-09-11T20:07:37.156Z,50.98
2018-09-11T20:10:05.885Z,50.91
2018-09-11T20:12:34.562Z,50.88
2018-09-11T20:15:03.309Z,51.64
2018-09-11T20:17:32.042Z,51.65
2018-09-11T20:20:00.828Z,51.55
2018-09-11T20:22:29.516Z,52.13
2018-09-11T20:24:58.231Z,52.25
2018-09-11T20:27:26.941Z,52.37
2018-09-11T20:29:55.624Z,51.99
2018-09-11T20:32:24.977Z,52.37
2018-09-11T20:34:53.739Z,52.75
2018-09-11T20:37:22.505Z,52.75
2018-09-11T20:39:51.204Z,52.64
2018-09-11T20:42:19.832Z,52.52
2018-09-11T20:44:48.536Z,52.83
2018-09-11T20:47:17.212Z,52.93
2018-09-11T20:49:46.004Z,52.64
2018-09-11T20:52:14.870Z,52.85
2018-09-11T20:54:43.677Z,53.13
2018-09-11T20:57:12.480Z,52.90
2018-09-11T20:59:41.674Z,52.75
2018-09-11T21:02:10.351Z,52.99
2018-09-11T21:04:39.103Z,52.80
2018-09-11T21:07:07.801Z,52.62
2018-09-11T21:09:36.430Z,52.76
2018-09-11T21:12:05.266Z,53.07
2018-09-11T21:14:33.963Z,53.33
2018-09-11T21:17:02.622Z,53.26
2018-09-11T21:19:31.242Z,53.21
2018-09-11T21:21:59.890Z,53.55
2018-09-11T21:24:28.538Z,53.43
2018-09-11T21:26:57.245Z,53.80
2018-09-11T21:29:25.943Z,53.99
2018-09-11T21:31:54.629Z,53.70
2018-09-11T21:34:23.392Z,53.76
2018-09-11T21:36:52.225Z,53.69
2018-09-11T21:39:20.879Z,53.60
2018-09-11T21:41:49.574Z,54.24
2018-09-11T21:44:18.980Z,54.02
2018-09-11T21:46:47.616Z,53.80
2018-09-11T21:49:16.288Z,53.76
2018-09-11T21:51:45.023Z,53.90
2018-09-11T21:54:13.639Z,54.77
2018-09-11T21:56:42.262Z,55.17
2018-09-11T21:59:11.356Z,54.07
2018-09-11T22:01:45.252Z,55.20
2018-09-11T22:04:13.938Z,54.61
2018-09-11T22:06:42.621Z,55.11
2018-09-11T22:09:12.077Z,55.40
2018-09-11T22:11:41.411Z,55.67
2018-09-11T22:14:10.613Z,55.23
2018-09-11T22:16:40.218Z,55.69
2018-09-11T22:19:08.969Z,55.27
2018-09-11T22:21:38.166Z,55.20
2018-09-11T22:24:06.863Z,55.64
2018-09-11T22:26:35.691Z,55.52
2018-09-11T22:29:04.426Z,55.28
2018-09-11T22:31:33.104Z,55.66
2018-09-11T22:34:02.035Z,55.42
2018-09-11T22:36:30.767Z,54.80
2018-09-11T22:38:59.443Z,55.17
2018-09-11T22:41:28.091Z,55.21
2018-09-11T22:43:56.760Z,55.03
2018-09-11T22:46:25.860Z,55.17
2018-09-11T22:48:54.527Z,55.54
2018-09-11T22:51:23.154Z,55.67
2018-09-11T22:53:51.782Z,56.43
2018-09-11T22:56:20.427Z,56.17
2018-09-11T22:58:49.034Z,56.54
2018-09-11T23:01:17.671Z,56.19
2018-09-11T23:03:46.326Z,56.47
2018-09-11T23:06:15.038Z,56.20
2018-09-11T23:08:43.708Z,56.18
2018-09-11T23:11:12.364Z,57.26
2018-09-11T23:13:41.011Z,56.73
2018-09-11T23:16:09.763Z,56.97
2018-09-11T23:18:38.424Z,56.86
2018-09-11T23:21:07.243Z,57.22
2018-09-11T23:23:35.890Z,57.27
2018-09-11T23:26:04.591Z,57.18
2018-09-11T23:28:33.222Z,57.49
2018-09-11T23:31:01.955Z,57.85
2018-09-11T23:33:30.587Z,56.88
2018-09-11T23:35:59.206Z,57.54
2018-09-11T23:38:27.861Z,57.61
2018-09-11T23:40:56.502Z,57.34
2018-09-11T23:43:25.249Z,57.60
2018-09-11T23:45:54.094Z,58.00
2018-09-11T23:48:22.773Z,58.02
2018-09-11T23:50:51.378Z,57.56
2018-09-11T23:53:19.992Z,57.99
2018-09-11T23:55:48.694Z,57.61
2018-09-11T23:58:17.358Z,57.67
